LEIB/IBZ METAR and TAF weather

Enter ICAO airport designator
Station Type Date Time Source
LEIB METAR 2021/02/25 16:30 UTC NOAA

LEIB 251630Z 07007KT 040V110 9999 FEW021 15/10 Q1029 NOSIG


Station Type Date Time Source
LEIB Decoded METAR 2021/02/25 16:30 UTC NOAA

Ibiza / Es Codola, Spain (LEIB) 38-52N 001-23E 12M
Feb 25, 2021 - 11:30 AM EST / 2021.02.25 1630 UTC
Wind: from the ENE (070 degrees) at 8 MPH (7 KT) (direction variable):0
Visibility: greater than 7 mile(s):0
Sky conditions: mostly clear
Temperature: 59 F (15 C)
Dew Point: 50 F (10 C)
Relative Humidity: 72%
Pressure (altimeter): 30.39 in. Hg (1029 hPa)
ob: LEIB 251630Z 07007KT 040V110 9999 FEW021 15/10 Q1029 NOSIG
cycle: 16

Station Type Date Time Source
LEIB TAF 2021/02/25 15:27 UTC NOAA

TAF LEIB 251400Z 2515/2615 09009KT 9999 SCT020 TX17/2612Z TN09/2606Z
TEMPO 2518/2609 3000 BR BKN010

Example: see airport list